Time;durP1;ratioP1;P1;durP2;ratioP2;P2;SDS_P1;SDS_P2;PMS_P1;PMS_P2;Temp;Humidity;BMP_temperature;BMP_pressure;BME280_temperature;BME280_humidity;BME280_pressure;Samples;Min_cycle;Max_cycle;Signal;HPM_P1;HPM_P2
2023/07/29 00:01:33;;;;;;;3.72;3.15;;;;;;;-145.63;60.23;38975.34;5026471;28;20053;-69
2023/07/29 00:03:59;;;;;;;4.35;2.88;;;;;;;-145.63;60.59;39020.34;5046033;28;20038;-69
2023/07/29 00:06:25;;;;;;;2.80;2.60;;;;;;;-145.63;60.03;39006.66;5045883;28;20037;-68
2023/07/29 00:08:50;;;;;;;6.88;3.47;;;;;;;-145.63;59.94;39004.69;5034774;28;20048;-68
2023/07/29 00:11:16;;;;;;;4.88;2.67;;;;;;;-145.63;60.44;38967.53;5032238;28;20026;-69
2023/07/29 00:13:42;;;;;;;3.15;2.85;;;;;;;-145.63;61.00;39053.59;5044426;28;20032;-69
2023/07/29 00:16:07;;;;;;;4.57;2.90;;;;;;;-145.63;61.32;38987.09;5025958;28;20044;-68
2023/07/29 00:18:33;;;;;;;2.80;2.58;;;;;;;-145.63;60.36;38981.22;5025837;28;20032;-68
2023/07/29 00:20:59;;;;;;;5.18;2.90;;;;;;;-145.63;60.68;38994.91;5037907;28;20262;-68
2023/07/29 00:23:24;;;;;;;3.95;2.95;;;;;;;-145.63;60.77;38992.97;5038427;28;20029;-69
2023/07/29 00:25:50;;;;;;;6.25;3.25;;;;;;;-145.63;60.73;39006.66;5025956;28;20025;-68
2023/07/29 00:28:16;;;;;;;5.22;2.70;;;;;;;-145.63;60.50;39000.78;5029920;28;20063;-68
2023/07/29 00:30:41;;;;;;;2.70;2.50;;;;;;;-145.63;60.42;38963.63;5026545;28;20060;-68
2023/07/29 00:33:07;;;;;;;5.53;2.92;;;;;;;-145.63;60.37;38985.13;5033256;28;20045;-68
2023/07/29 00:35:34;;;;;;;4.57;3.03;;;;;;;-145.63;60.40;38981.22;5025693;28;20060;-68
2023/07/29 00:38:00;;;;;;;5.30;2.67;;;;;;;-145.63;60.78;39059.44;5043888;28;20025;-68
2023/07/29 00:40:28;;;;;;;7.18;3.22;;;;;;;-145.63;61.02;38996.88;5032754;28;20093;-69
2023/07/29 00:42:54;;;;;;;3.00;2.70;;;;;;;-145.63;60.40;38973.41;5033737;28;20036;-68
2023/07/29 00:45:20;;;;;;;3.45;3.15;;;;;;;-145.63;60.44;38989.03;5031498;28;20053;-69
2023/07/29 00:47:47;;;;;;;4.38;3.00;;;;;;;-145.63;60.69;38977.31;5043380;28;20033;-69
2023/07/29 00:50:14;;;;;;;5.28;3.25;;;;;;;-145.63;61.08;38994.91;5024090;28;20029;-70
2023/07/29 00:52:41;;;;;;;4.30;3.00;;;;;;;-145.63;60.73;38965.56;5043240;28;20055;-68
2023/07/29 00:55:07;;;;;;;3.80;3.20;;;;;;;-145.63;60.65;38996.88;5031719;28;20036;-69
2023/07/29 00:57:33;;;;;;;3.00;2.80;;;;;;;-145.63;59.76;38973.41;5033908;28;20021;-68
2023/07/29 01:00:00;;;;;;;3.55;3.20;;;;;;;-145.63;59.94;39032.06;5041629;28;20118;-68
2023/07/29 01:02:26;;;;;;;5.70;2.95;;;;;;;-145.63;59.85;38973.41;5033449;28;20056;-68
2023/07/29 01:04:57;;;;;;;5.38;3.40;;;;;;;-145.63;60.18;38946.03;5025699;28;20038;-69
2023/07/29 01:07:35;;;;;;;4.95;3.67;;;;;;;-145.63;60.46;39000.78;5040355;28;20101;-68
2023/07/29 01:10:16;;;;;;;3.40;3.10;;;;;;;-145.63;59.97;39034.03;5032489;28;20034;-67
2023/07/29 01:12:50;;;;;;;4.25;3.38;;;;;;;-145.63;59.92;38987.09;5024899;28;20030;-67
2023/07/29 01:15:26;;;;;;;3.78;2.97;;;;;;;-145.63;59.81;38994.91;5030286;28;20029;-68
2023/07/29 01:17:59;;;;;;;4.70;3.08;;;;;;;-145.63;59.87;39012.50;5041948;28;20093;-69
2023/07/29 01:20:25;;;;;;;3.30;2.80;;;;;;;-145.63;59.27;39032.06;5024602;28;20385;-68
2023/07/29 01:22:51;;;;;;;4.13;3.13;;;;;;;-145.63;60.13;39049.66;5043785;28;20029;-68
2023/07/29 01:25:17;;;;;;;6.32;3.08;;;;;;;-145.63;59.98;38963.63;5029905;28;20034;-69
2023/07/29 01:27:46;;;;;;;5.30;3.50;;;;;;;-145.63;60.19;39022.28;5034252;28;20033;-67
2023/07/29 01:30:12;;;;;;;4.35;3.38;;;;;;;-145.63;60.10;38996.88;5044175;28;20033;-68
2023/07/29 01:33:04;;;;;;;8.48;3.22;;;;;;;-145.63;59.64;39014.47;5043773;28;20025;-69
2023/07/29 01:35:39;;;;;;;4.32;3.72;;;;;;;-145.63;59.54;39035.97;5023313;28;20223;-69
2023/07/29 01:38:14;;;;;;;6.00;3.70;;;;;;;-145.63;59.67;39022.28;5024650;28;20034;-68
2023/07/29 01:40:41;;;;;;;4.60;3.30;;;;;;;-145.63;59.67;39016.44;5036621;28;20038;-68
2023/07/29 01:43:09;;;;;;;5.03;3.92;;;;;;;-145.63;60.21;39012.50;5037290;28;20088;-69
2023/07/29 01:45:37;;;;;;;5.30;3.60;;;;;;;-145.63;60.41;38979.28;5035650;28;20079;-69
2023/07/29 01:48:07;;;;;;;11.52;8.40;;;;;;;-145.63;60.58;39018.38;5028409;28;20032;-67
2023/07/29 01:50:33;;;;;;;6.97;3.80;;;;;;;-145.63;60.90;39026.19;5043962;28;20202;-68
2023/07/29 01:52:59;;;;;;;3.88;3.47;;;;;;;-145.63;60.64;39045.75;5024420;28;20029;-69
2023/07/29 01:55:25;;;;;;;6.93;4.40;;;;;;;-145.63;60.89;39047.72;5039765;28;20087;-68
2023/07/29 01:57:53;;;;;;;5.95;4.25;;;;;;;-145.63;60.81;39014.47;5043915;28;20033;-69
2023/07/29 02:00:19;;;;;;;6.85;3.90;;;;;;;-145.63;60.61;39016.44;5037633;28;20097;-69
2023/07/29 02:02:45;;;;;;;9.20;5.68;;;;;;;-145.63;60.82;39006.66;5025574;28;20041;-68
2023/07/29 02:05:11;;;;;;;6.10;5.50;;;;;;;-145.63;60.82;39047.72;5024501;28;20042;-68
2023/07/29 02:07:36;;;;;;;7.43;4.60;;;;;;;-145.63;61.42;39080.97;5023914;28;20198;-68
2023/07/29 02:10:03;;;;;;;5.28;4.35;;;;;;;-145.63;61.54;39002.72;5035771;28;20025;-68
2023/07/29 02:12:30;;;;;;;6.07;4.53;;;;;;;-145.63;60.85;39016.44;5043355;28;20074;-68
2023/07/29 02:14:56;;;;;;;7.72;3.88;;;;;;;-145.63;60.46;39055.53;5041221;28;20097;-68
2023/07/29 02:17:22;;;;;;;7.68;4.07;;;;;;;-145.63;61.00;39055.53;5023571;28;20033;-68
2023/07/29 02:19:47;;;;;;;7.03;4.00;;;;;;;-145.63;60.71;39055.53;5041622;28;20021;-68
2023/07/29 02:22:17;;;;;;;4.57;3.88;;;;;;;-145.63;60.77;39065.31;5029933;28;20029;-68
2023/07/29 02:24:43;;;;;;;5.65;4.15;;;;;;;-145.63;60.72;39073.13;5032703;28;20302;-68
2023/07/29 02:27:09;;;;;;;6.13;5.05;;;;;;;-145.63;61.12;39012.50;5038980;28;20030;-68
2023/07/29 02:29:35;;;;;;;8.02;4.20;;;;;;;-145.63;61.19;39024.25;5037367;28;20333;-68
2023/07/29 02:32:00;;;;;;;8.90;4.70;;;;;;;-145.63;61.30;39051.63;5040990;28;20037;-69
2023/07/29 02:34:26;;;;;;;6.38;4.28;;;;;;;-145.63;61.28;39073.13;5042645;28;20033;-68
2023/07/29 02:36:52;;;;;;;5.88;3.75;;;;;;;-145.63;61.31;39020.34;5042655;28;20033;-69
2023/07/29 02:39:18;;;;;;;4.28;3.88;;;;;;;-145.63;61.15;39067.28;5037338;28;20195;-68
2023/07/29 02:41:43;;;;;;;4.18;3.70;;;;;;;-145.63;61.32;39008.59;5036339;28;20052;-69
2023/07/29 02:44:09;;;;;;;6.32;4.40;;;;;;;-145.63;61.40;39043.81;5023588;28;20052;-69
2023/07/29 02:46:35;;;;;;;7.75;3.70;;;;;;;-145.63;61.25;39022.28;5023293;28;20084;-69
2023/07/29 02:49:03;;;;;;;5.28;4.00;;;;;;;-145.63;61.64;39030.13;5034949;28;20029;-69
2023/07/29 02:51:31;;;;;;;6.38;3.60;;;;;;;-145.63;61.08;39047.72;5036292;28;20079;-69
2023/07/29 02:53:57;;;;;;;5.97;4.38;;;;;;;-145.63;60.46;39020.34;5025717;28;20234;-70
2023/07/29 02:56:23;;;;;;;5.55;4.00;;;;;;;-145.63;60.92;39032.06;5023522;28;20025;-68
2023/07/29 02:58:51;;;;;;;5.45;3.53;;;;;;;-145.63;60.96;39030.13;5041256;28;20043;-68
2023/07/29 03:01:17;;;;;;;8.05;4.28;;;;;;;-145.63;60.66;39059.44;5029780;28;20033;-70
2023/07/29 03:03:43;;;;;;;4.90;3.25;;;;;;;-145.63;60.72;39032.06;5032481;28;20049;-69
2023/07/29 03:06:10;;;;;;;5.95;4.13;;;;;;;-145.63;61.09;39041.84;5042900;28;20040;-69
2023/07/29 03:08:37;;;;;;;6.10;4.40;;;;;;;-145.63;60.93;39059.44;5043102;28;20037;-70
2023/07/29 03:11:20;;;;;;;6.32;4.20;;;;;;;-145.63;61.67;39041.84;5023781;28;20057;-70
2023/07/29 03:13:46;;;;;;;5.53;3.70;;;;;;;-145.63;60.53;39034.03;5023267;28;20061;-69
2023/07/29 03:16:15;;;;;;;7.43;3.90;;;;;;;-145.63;61.29;39057.50;5034759;28;20075;-69
2023/07/29 03:18:41;;;;;;;5.72;3.75;;;;;;;-145.63;61.05;39055.53;5034571;28;20026;-69
2023/07/29 03:21:08;;;;;;;6.53;3.40;;;;;;;-145.63;61.46;39059.44;5027073;28;20108;-70
2023/07/29 03:23:34;;;;;;;3.95;3.53;;;;;;;-145.63;60.74;39049.66;5042916;28;20317;-68
2023/07/29 03:26:04;;;;;;;4.78;3.50;;;;;;;-145.63;61.32;39055.53;5022547;28;20376;-70
2023/07/29 03:28:32;;;;;;;3.92;3.63;;;;;;;-145.63;60.72;39055.53;5037671;28;20038;-69
2023/07/29 03:30:58;;;;;;;4.82;3.40;;;;;;;-145.63;60.57;39063.34;5038372;28;20056;-70
2023/07/29 03:33:25;;;;;;;4.65;4.10;;;;;;;-145.63;61.20;39123.97;5022923;28;20357;-69
2023/07/29 03:35:52;;;;;;;5.13;3.25;;;;;;;-145.63;60.95;39080.97;5023085;28;20132;-68
2023/07/29 03:38:18;;;;;;;5.57;3.92;;;;;;;-145.63;61.40;39063.34;5024101;28;20022;-69
2023/07/29 03:40:44;;;;;;;6.68;3.28;;;;;;;-145.63;61.69;39067.28;5027004;28;20307;-70
2023/07/29 03:43:10;;;;;;;4.25;3.60;;;;;;;-145.63;61.88;39084.88;5038624;28;20106;-68
2023/07/29 03:45:38;;;;;;;3.78;3.10;;;;;;;-145.63;61.09;39086.81;5039305;28;20030;-69
2023/07/29 03:48:04;;;;;;;9.73;3.90;;;;;;;-145.63;61.54;39086.81;5033903;28;20357;-69
2023/07/29 03:50:30;;;;;;;4.20;3.80;;;;;;;-145.63;61.25;39090.75;5026172;28;20030;-69
2023/07/29 03:52:56;;;;;;;8.75;4.85;;;;;;;-145.63;62.02;39071.19;5026544;28;20311;-70
2023/07/29 03:55:22;;;;;;;4.40;3.80;;;;;;;-145.63;61.63;38635.09;5026555;28;20095;-70
2023/07/29 03:57:48;;;;;;;5.05;3.70;;;;;;;-145.63;61.45;39065.31;5035396;28;20302;-70
2023/07/29 04:00:14;;;;;;;4.82;3.92;;;;;;;-145.63;61.64;39063.34;5041842;28;20210;-70
2023/07/29 04:02:42;;;;;;;5.32;3.70;;;;;;;-145.63;61.19;39063.34;5026454;28;20073;-69
2023/07/29 04:05:08;;;;;;;5.13;3.65;;;;;;;-145.63;61.37;39086.81;5045951;28;20033;-68
2023/07/29 04:07:34;;;;;;;4.75;3.83;;;;;;;-145.63;61.68;39065.31;5030426;28;20302;-70
2023/07/29 04:10:01;;;;;;;5.63;3.63;;;;;;;-145.63;61.27;39065.31;5036747;28;20025;-70
2023/07/29 04:12:27;;;;;;;4.78;3.80;;;;;;;-145.63;61.41;39043.81;5037574;28;20249;-69
2023/07/29 04:14:52;;;;;;;4.70;3.63;;;;;;;-145.63;61.51;39075.09;5026098;28;20093;-70
2023/07/29 04:17:18;;;;;;;5.30;3.65;;;;;;;-145.63;61.40;39047.72;5026159;28;20049;-69
2023/07/29 04:19:44;;;;;;;4.00;3.70;;;;;;;-145.63;61.79;39075.09;5042573;28;20340;-69
2023/07/29 04:22:10;;;;;;;6.15;4.63;;;;;;;-145.63;61.44;39071.19;5033932;28;20029;-68
2023/07/29 04:24:36;;;;;;;5.82;3.80;;;;;;;-145.63;61.09;39051.63;5032988;28;20030;-69
2023/07/29 04:27:01;;;;;;;6.43;4.28;;;;;;;-145.63;61.23;39080.97;5043241;28;20379;-68
2023/07/29 04:29:27;;;;;;;7.38;3.88;;;;;;;-145.63;61.54;39075.09;5025650;28;20218;-70
2023/07/29 04:31:53;;;;;;;5.07;3.80;;;;;;;-145.63;62.00;39051.63;5038831;28;20210;-68
2023/07/29 04:34:19;;;;;;;4.25;3.85;;;;;;;-145.63;61.54;38822.81;5025410;28;20325;-69
2023/07/29 04:36:48;;;;;;;4.75;3.60;;;;;;;-145.63;61.90;39079.00;5025796;28;20097;-69
2023/07/29 04:39:14;;;;;;;5.82;4.53;;;;;;;-145.63;62.17;39090.75;5029587;28;20217;-69
2023/07/29 04:41:40;;;;;;;4.07;3.67;;;;;;;-145.63;61.79;39065.31;5032130;28;20045;-69
2023/07/29 04:44:05;;;;;;;5.03;4.22;;;;;;;-145.63;62.08;39086.81;5044866;28;20032;-68
2023/07/29 04:46:31;;;;;;;5.20;3.90;;;;;;;-145.63;61.74;39051.63;5030700;28;20234;-68
2023/07/29 04:48:57;;;;;;;4.65;4.10;;;;;;;-145.63;61.40;39045.75;5034818;28;20029;-68
2023/07/29 04:51:24;;;;;;;5.80;4.47;;;;;;;-145.63;61.90;39082.91;5044339;28;20329;-69
2023/07/29 04:53:50;;;;;;;5.63;4.18;;;;;;;-145.63;61.71;39067.28;5044571;28;20032;-68
2023/07/29 04:56:15;;;;;;;4.10;3.70;;;;;;;-145.63;61.14;39067.28;5025009;28;20018;-69
2023/07/29 04:58:41;;;;;;;5.10;4.15;;;;;;;-145.63;60.79;39102.47;5025308;28;20025;-69
2023/07/29 05:01:07;;;;;;;3.92;3.08;;;;;;;-145.63;60.39;39039.88;5036294;28;20029;-68
2023/07/29 05:03:33;;;;;;;4.97;4.05;;;;;;;-145.63;60.92;39071.19;5038328;28;20327;-70
2023/07/29 05:05:59;;;;;;;5.88;3.70;;;;;;;-145.63;61.00;39073.13;5027217;28;20155;-69
2023/07/29 05:08:26;;;;;;;4.47;3.80;;;;;;;-145.63;61.36;39037.94;5044745;28;20059;-69
2023/07/29 05:10:53;;;;;;;9.38;3.88;;;;;;;-145.63;61.09;39045.75;5027599;28;20049;-69
2023/07/29 05:13:20;;;;;;;6.00;4.25;;;;;;;-145.63;61.15;39008.59;5037459;28;20053;-68
2023/07/29 05:15:50;;;;;;;6.28;3.80;;;;;;;-145.63;61.31;39055.53;5036705;28;20081;-69
2023/07/29 05:18:17;;;;;;;4.22;3.47;;;;;;;-145.63;61.13;39051.63;5028709;28;20073;-69
2023/07/29 05:20:43;;;;;;;3.78;3.47;;;;;;;-145.63;60.46;39039.88;5043506;28;20167;-69
2023/07/29 05:23:08;;;;;;;5.13;4.00;;;;;;;-145.63;60.25;39039.88;5025083;28;20033;-68
2023/07/29 05:25:34;;;;;;;4.88;4.15;;;;;;;-145.63;60.89;39049.66;5039275;28;20067;-68
2023/07/29 05:28:03;;;;;;;5.38;4.00;;;;;;;-145.63;60.59;39039.88;5044388;28;20078;-68
2023/07/29 05:30:37;;;;;;;4.47;3.80;;;;;;;-145.63;60.78;39028.16;5043607;28;20040;-68
2023/07/29 05:33:12;;;;;;;4.75;4.07;;;;;;;-145.63;60.77;39059.44;5042689;28;20025;-69
2023/07/29 05:35:38;;;;;;;4.32;3.92;;;;;;;-145.63;60.61;39057.50;5024625;28;20033;-69
2023/07/29 05:38:06;;;;;;;5.68;3.88;;;;;;;-145.63;60.39;39086.81;5042925;28;20034;-68
2023/07/29 05:40:31;;;;;;;3.85;3.45;;;;;;;-145.63;60.09;39043.81;5033699;28;20092;-69
2023/07/29 05:42:57;;;;;;;4.85;4.00;;;;;;;-145.63;60.57;39063.34;5034902;28;20076;-68
2023/07/29 05:45:22;;;;;;;4.78;3.80;;;;;;;-145.63;60.43;39032.06;5024230;28;20119;-68
2023/07/29 05:47:49;;;;;;;3.88;3.53;;;;;;;-145.63;59.90;39055.53;5024308;28;20222;-69
2023/07/29 05:50:15;;;;;;;3.95;3.50;;;;;;;-145.63;60.28;39024.25;5023976;28;20026;-68
2023/07/29 05:52:41;;;;;;;4.78;3.83;;;;;;;-145.63;60.83;38992.97;5039393;28;20097;-68
2023/07/29 05:55:07;;;;;;;5.65;4.00;;;;;;;-145.63;60.39;39041.84;5033560;28;20026;-68
2023/07/29 05:57:33;;;;;;;5.90;3.63;;;;;;;-145.63;59.72;39028.16;5030142;28;20036;-68
2023/07/29 05:59:59;;;;;;;3.75;3.30;;;;;;;-145.63;60.16;39024.25;5042831;28;20025;-67
2023/07/29 06:02:24;;;;;;;5.63;3.60;;;;;;;-145.63;60.40;39057.50;5023600;28;20050;-68
2023/07/29 06:04:50;;;;;;;4.43;3.67;;;;;;;-145.63;61.08;39045.75;5039822;28;20124;-68
2023/07/29 06:07:16;;;;;;;4.38;3.88;;;;;;;-145.63;61.16;39030.13;5039016;28;20077;-68
2023/07/29 06:09:41;;;;;;;14.88;4.43;;;;;;;-145.63;61.78;39016.44;5023836;28;20033;-68
2023/07/29 06:12:08;;;;;;;4.70;3.58;;;;;;;-145.63;61.05;39024.25;5023926;28;20214;-69
2023/07/29 06:14:33;;;;;;;5.30;3.90;;;;;;;-145.63;61.40;39047.72;5023916;28;20298;-67
2023/07/29 06:16:59;;;;;;;5.53;3.67;;;;;;;-145.63;61.50;39020.34;5023345;28;20041;-68
2023/07/29 06:19:25;;;;;;;3.78;3.35;;;;;;;-145.63;61.61;39016.44;5036053;28;20029;-68
2023/07/29 06:21:50;;;;;;;4.65;3.90;;;;;;;-145.63;61.82;39028.16;5041346;28;20066;-68
2023/07/29 06:24:16;;;;;;;4.95;3.90;;;;;;;-145.63;61.77;38994.91;5039887;28;20064;-68
2023/07/29 06:26:41;;;;;;;4.32;3.30;;;;;;;-145.63;61.04;39028.16;5023224;28;20025;-68
2023/07/29 06:29:07;;;;;;;4.43;3.90;;;;;;;-145.63;61.63;39028.16;5041739;28;20048;-68
2023/07/29 06:31:33;;;;;;;4.65;4.07;;;;;;;-145.63;61.24;39002.72;5043167;28;20033;-67
2023/07/29 06:33:59;;;;;;;5.15;3.58;;;;;;;-145.63;61.54;39024.25;5034436;28;20034;-67
2023/07/29 06:36:25;;;;;;;3.88;3.40;;;;;;;-145.63;61.19;39037.94;5023494;28;20045;-69
2023/07/29 06:38:51;;;;;;;4.00;3.40;;;;;;;-145.63;61.02;39008.59;5023509;28;20545;-68
2023/07/29 06:41:16;;;;;;;4.35;3.00;;;;;;;-145.63;60.49;39010.56;5032957;28;20029;-68
2023/07/29 06:43:42;;;;;;;3.40;2.70;;;;;;;-145.63;60.05;39002.72;5038261;28;20052;-68
2023/07/29 06:46:08;;;;;;;4.47;3.13;;;;;;;-145.63;59.84;39016.44;5033014;28;20026;-68
2023/07/29 06:48:33;;;;;;;2.70;2.50;;;;;;;-145.63;59.65;38983.19;5028604;28;20070;-68
2023/07/29 06:51:00;;;;;;;3.20;2.90;;;;;;;-145.63;59.96;38994.91;5042319;28;20039;-68
2023/07/29 06:53:27;;;;;;;3.20;2.90;;;;;;;-145.63;60.43;38998.81;5026117;28;20310;-69
2023/07/29 06:55:53;;;;;;;3.78;3.13;;;;;;;-145.63;60.69;39008.59;5026755;28;20242;-68
2023/07/29 06:58:19;;;;;;;3.20;2.90;;;;;;;-145.63;60.48;38971.44;5034654;28;20025;-67
2023/07/29 07:00:44;;;;;;;3.33;2.97;;;;;;;-145.63;60.41;39004.69;5035116;28;20218;-68
2023/07/29 07:03:10;;;;;;;3.20;2.90;;;;;;;-145.63;60.36;38985.13;5025089;28;20053;-68
2023/07/29 07:05:36;;;;;;;3.63;3.13;;;;;;;-145.63;60.46;39016.44;5043094;28;20325;-68
2023/07/29 07:08:01;;;;;;;3.30;3.00;;;;;;;-145.63;60.40;39010.56;5025798;28;20100;-68
2023/07/29 07:10:27;;;;;;;3.00;2.80;;;;;;;-145.63;60.00;38998.81;5035460;28;20321;-68
2023/07/29 07:12:53;;;;;;;7.60;3.67;;;;;;;-145.63;60.36;39024.25;5035630;28;20029;-69
2023/07/29 07:15:18;;;;;;;3.53;3.20;;;;;;;-145.63;60.57;39026.19;5030148;28;20072;-67
2023/07/29 07:17:44;;;;;;;4.70;3.15;;;;;;;-145.63;60.98;39024.25;5047040;28;20029;-68
2023/07/29 07:20:11;;;;;;;3.25;2.95;;;;;;;-145.63;60.86;39026.19;5028083;28;20281;-68
2023/07/29 07:22:37;;;;;;;4.38;3.20;;;;;;;-145.63;60.55;39028.16;5040678;28;20056;-68
2023/07/29 07:25:03;;;;;;;5.38;3.17;;;;;;;-145.63;60.30;39024.25;5037900;28;20026;-69
2023/07/29 07:27:30;;;;;;;4.88;2.95;;;;;;;-145.63;61.01;38977.31;5031943;28;20040;-68
2023/07/29 07:29:55;;;;;;;5.30;3.00;;;;;;;-145.63;61.13;39043.81;5046507;28;20033;-68
2023/07/29 07:32:21;;;;;;;3.42;2.97;;;;;;;-145.63;60.83;39030.13;5046638;28;20025;-67
2023/07/29 07:34:46;;;;;;;3.70;3.40;;;;;;;-145.63;61.29;39006.66;5031555;28;20029;-68
2023/07/29 07:37:12;;;;;;;3.40;3.10;;;;;;;-145.63;61.09;39032.06;5036981;28;20029;-68
2023/07/29 07:39:38;;;;;;;4.35;3.42;;;;;;;-145.63;60.82;39028.16;5041195;28;20022;-68
2023/07/29 07:42:04;;;;;;;3.65;3.20;;;;;;;-145.63;60.39;39024.25;5042321;28;20029;-68
2023/07/29 07:44:30;;;;;;;3.22;2.90;;;;;;;-145.63;60.38;39024.25;5026585;28;20100;-68
2023/07/29 07:46:55;;;;;;;3.33;3.03;;;;;;;-145.63;60.68;38989.03;5026642;28;20323;-68
2023/07/29 07:49:22;;;;;;;3.97;3.58;;;;;;;-145.63;60.70;39028.16;5037737;28;20167;-67
2023/07/29 07:51:47;;;;;;;3.92;3.58;;;;;;;-145.63;61.13;39026.19;5035405;28;20021;-68
2023/07/29 07:54:13;;;;;;;3.72;3.42;;;;;;;-145.63;60.69;39032.06;5044297;28;20033;-68
2023/07/29 07:56:39;;;;;;;6.43;3.28;;;;;;;-145.63;60.55;39008.59;5026516;28;20030;-68
2023/07/29 07:59:04;;;;;;;4.00;3.10;;;;;;;-145.63;61.02;39024.25;5042474;28;20029;-68
2023/07/29 08:01:37;;;;;;;3.70;3.15;;;;;;;-145.63;60.69;39000.78;5033437;28;20064;-68
2023/07/29 08:04:03;;;;;;;3.45;3.17;;;;;;;-145.63;60.88;39032.06;5035635;28;20041;-68
2023/07/29 08:06:30;;;;;;;3.58;3.17;;;;;;;-145.63;60.84;39026.19;5042097;28;20325;-68
2023/07/29 08:08:56;;;;;;;3.97;3.58;;;;;;;-145.63;61.08;38996.88;5026180;28;20105;-69
2023/07/29 08:11:22;;;;;;;11.95;10.73;;;;;;;-145.63;60.98;39010.56;5045197;28;20040;-68
2023/07/29 08:13:48;;;;;;;5.70;4.78;;;;;;;-145.63;60.42;39020.34;5032203;28;20029;-68
2023/07/29 08:16:14;;;;;;;6.57;5.95;;;;;;;-145.63;60.38;39030.13;5044599;28;20049;-68
2023/07/29 08:18:39;;;;;;;7.60;5.88;;;;;;;-145.63;60.38;39010.56;5040502;28;20053;-69
2023/07/29 08:21:05;;;;;;;5.13;4.63;;;;;;;-145.63;60.32;39049.66;5026879;28;20337;-68
2023/07/29 08:23:33;;;;;;;6.88;4.45;;;;;;;-145.63;60.05;39016.44;5045784;28;20088;-68
2023/07/29 08:26:02;;;;;;;5.68;5.15;;;;;;;-145.63;60.39;39018.38;5029334;28;20054;-68
2023/07/29 08:28:33;;;;;;;4.72;4.25;;;;;;;-145.63;60.46;39041.84;5037698;28;20072;-68
2023/07/29 08:31:00;;;;;;;6.38;5.32;;;;;;;-145.63;60.73;38998.81;5045575;28;20025;-68
2023/07/29 08:33:26;;;;;;;5.78;4.40;;;;;;;-145.63;60.63;38996.88;5041993;28;20048;-69
2023/07/29 08:35:52;;;;;;;5.95;4.65;;;;;;;-145.63;60.95;39008.59;5024559;28;20354;-68
2023/07/29 08:38:18;;;;;;;4.72;4.32;;;;;;;-145.63;60.27;38985.13;5044196;28;20056;-68
2023/07/29 08:41:19;;;;;;;8.65;7.75;;;;;;;-145.63;60.22;38996.88;5036940;28;20017;-68
2023/07/29 08:44:17;;;;;;;5.43;4.38;;;;;;;-145.63;59.96;38996.88;5023823;28;20330;-68
2023/07/29 08:46:44;;;;;;;6.75;6.15;;;;;;;-145.63;60.25;38992.97;5025445;28;20036;-68
2023/07/29 08:49:13;;;;;;;5.20;4.72;;;;;;;-145.63;60.45;38965.56;5034625;28;21865;-68
2023/07/29 08:51:42;;;;;;;6.55;5.93;;;;;;;-145.63;60.17;39028.16;5040222;28;20022;-68
2023/07/29 08:54:09;;;;;;;5.15;3.65;;;;;;;-145.63;59.87;38983.19;5026359;28;20358;-68
2023/07/29 08:56:35;;;;;;;4.05;3.70;;;;;;;-145.63;59.54;39133.75;5045118;28;20029;-68
2023/07/29 08:59:02;;;;;;;5.22;4.57;;;;;;;-145.63;59.88;38949.94;5040598;28;20041;-67
2023/07/29 09:01:30;;;;;;;6.25;4.70;;;;;;;-145.63;60.54;38991.00;5025254;28;20072;-68
2023/07/29 09:03:56;;;;;;;5.28;4.38;;;;;;;-145.63;60.09;39020.34;5032301;28;20298;-68
2023/07/29 09:06:24;;;;;;;4.43;4.10;;;;;;;-145.63;60.34;39012.50;5042063;28;20025;-69
2023/07/29 09:08:51;;;;;;;5.72;5.20;;;;;;;-145.63;59.96;39059.44;5025049;28;20041;-68
2023/07/29 09:11:17;;;;;;;4.50;4.10;;;;;;;-145.63;59.90;39010.56;5043203;28;20025;-68
2023/07/29 09:13:43;;;;;;;5.88;4.40;;;;;;;-145.63;60.17;38994.91;5031004;28;20022;-68
2023/07/29 09:16:09;;;;;;;5.07;4.57;;;;;;;-145.63;60.51;39071.19;5024929;28;20021;-68
2023/07/29 09:18:35;;;;;;;8.85;7.50;;;;;;;-145.63;60.30;38785.66;5028910;28;20032;-68
2023/07/29 09:21:01;;;;;;;4.90;4.50;;;;;;;-145.63;59.90;39043.81;5044908;28;20063;-67
2023/07/29 09:23:28;;;;;;;19.92;17.92;;;;;;;-145.63;60.72;39004.69;5024891;28;20263;-69
2023/07/29 09:26:03;;;;;;;7.38;6.60;;;;;;;-145.63;60.66;39012.50;5025033;28;20366;-68
2023/07/29 09:28:34;;;;;;;6.13;5.32;;;;;;;-145.63;60.56;39043.81;5024565;28;20299;-68
2023/07/29 09:31:00;;;;;;;9.63;7.60;;;;;;;-145.63;61.40;38946.03;5033762;28;20029;-68
2023/07/29 09:33:26;;;;;;;17.38;15.73;;;;;;;-145.63;61.06;39010.56;5041259;28;20087;-68
2023/07/29 09:35:52;;;;;;;9.68;8.73;;;;;;;-145.63;61.44;39008.59;5023987;28;20071;-69
2023/07/29 09:38:18;;;;;;;9.15;8.25;;;;;;;-145.63;61.36;39024.25;5042469;28;20025;-69
2023/07/29 09:40:46;;;;;;;10.30;9.27;;;;;;;-145.63;61.67;39000.78;5036203;28;20021;-69
2023/07/29 09:43:12;;;;;;;8.05;6.28;;;;;;;-145.63;61.83;39008.59;5035118;28;20076;-69
2023/07/29 09:45:38;;;;;;;6.93;5.90;;;;;;;-145.63;61.81;38991.00;5024370;28;20030;-68
2023/07/29 09:48:09;;;;;;;6.00;5.38;;;;;;;-145.63;61.47;39010.56;5024373;28;20052;-69
2023/07/29 09:50:34;;;;;;;7.80;6.03;;;;;;;-145.63;62.43;39022.28;5023853;28;20022;-68
2023/07/29 09:53:00;;;;;;;5.35;4.85;;;;;;;-145.63;61.85;39016.44;5039850;28;20033;-69
2023/07/29 09:55:26;;;;;;;8.43;6.72;;;;;;;-145.63;62.35;39051.63;5032827;28;20088;-69
2023/07/29 09:58:02;;;;;;;7.60;6.43;;;;;;;-145.63;62.08;39035.97;5030552;28;20356;-70
2023/07/29 10:00:29;;;;;;;6.07;5.13;;;;;;;-145.63;62.46;39024.25;5040708;28;20022;-69
2023/07/29 10:02:56;;;;;;;8.20;7.32;;;;;;;-145.63;62.19;39035.97;5023830;28;20046;-69
2023/07/29 10:05:26;;;;;;;22.55;20.17;;;;;;;-145.63;61.80;39055.53;5042275;28;20037;-68
2023/07/29 10:07:53;;;;;;;9.50;5.60;;;;;;;-145.63;61.49;39018.38;5029340;28;20132;-69
2023/07/29 10:10:20;;;;;;;7.75;5.57;;;;;;;-145.63;61.95;39024.25;5032084;28;20075;-70
2023/07/29 10:12:46;;;;;;;5.75;5.00;;;;;;;-145.63;62.13;39049.66;5038210;28;20026;-70
2023/07/29 10:15:12;;;;;;;9.27;5.60;;;;;;;-145.63;62.39;39065.31;5023399;28;20071;-69
2023/07/29 10:17:39;;;;;;;7.50;6.70;;;;;;;-145.63;62.52;39057.50;5023903;28;20026;-69
2023/07/29 10:20:07;;;;;;;7.63;4.10;;;;;;;-145.63;62.00;39067.28;5024004;28;20044;-70
2023/07/29 10:22:43;;;;;;;5.55;4.90;;;;;;;-145.63;62.14;39055.53;5035488;28;20206;-69
2023/07/29 10:25:09;;;;;;;5.28;4.63;;;;;;;-145.63;61.92;39043.81;5035361;28;20030;-69
2023/07/29 10:27:46;;;;;;;6.45;5.20;;;;;;;-145.63;61.88;39035.97;5027671;28;20210;-69
2023/07/29 10:30:13;;;;;;;5.47;4.95;;;;;;;-145.63;61.87;39061.41;5043313;28;20025;-70
2023/07/29 10:32:42;;;;;;;7.35;5.53;;;;;;;-145.63;62.23;39006.66;5043537;28;20061;-70
2023/07/29 10:35:08;;;;;;;12.10;7.28;;;;;;;-145.63;63.20;39026.19;5043401;28;20318;-70
2023/07/29 10:37:34;;;;;;;7.25;6.38;;;;;;;-145.63;63.05;39024.25;5031849;28;20037;-70
2023/07/29 10:39:59;;;;;;;61.28;54.90;;;;;;;-145.63;62.98;39047.72;5030754;28;20025;-69
2023/07/29 10:42:25;;;;;;;20.33;18.08;;;;;;;-145.63;63.10;39034.03;5026141;28;20076;-69
2023/07/29 10:44:52;;;;;;;7.60;6.68;;;;;;;-145.63;63.28;38433.69;5043317;28;20053;-70
2023/07/29 10:47:23;;;;;;;7.60;6.45;;;;;;;-145.63;63.34;39028.16;5024963;28;20037;-70
2023/07/29 10:49:59;;;;;;;8.35;5.90;;;;;;;-145.63;63.03;39020.34;5036856;28;20317;-70
2023/07/29 10:52:43;;;;;;;9.60;6.30;;;;;;;-145.63;62.86;39014.47;5033239;28;20352;-70
2023/07/29 10:55:33;;;;;;;6.43;5.82;;;;;;;-145.63;62.12;39006.66;5031577;28;20352;-69
2023/07/29 10:58:17;;;;;;;6.60;5.63;;;;;;;-145.63;62.07;39008.59;5036528;28;20029;-69
2023/07/29 11:00:46;;;;;;;8.30;6.50;;;;;;;-145.63;62.56;39006.66;5027447;28;20033;-69
2023/07/29 11:03:16;;;;;;;8.02;5.93;;;;;;;-145.63;62.64;39026.19;5042887;28;20044;-70
2023/07/29 11:05:42;;;;;;;6.45;5.55;;;;;;;-145.63;62.43;39024.25;5023380;28;20030;-69
2023/07/29 11:08:22;;;;;;;7.03;4.90;;;;;;;-145.63;61.71;39057.50;5039237;28;20056;-69
2023/07/29 11:10:58;;;;;;;6.25;5.53;;;;;;;-145.63;61.98;39039.88;5029163;28;20037;-68
2023/07/29 11:13:27;;;;;;;7.32;5.38;;;;;;;-145.63;61.31;39032.06;5032089;28;20033;-70
2023/07/29 11:15:54;;;;;;;6.07;5.47;;;;;;;-145.63;61.77;38998.81;5037520;28;20287;-70
2023/07/29 11:18:21;;;;;;;21.65;19.13;;;;;;;-145.63;61.88;38809.13;5022888;28;20034;-69